Wetterstation Vordersexau
Wetterdaten: Woche 02.10.17 - 08.10.17 (KW40)
Datum Zeit Temp. A. Feuchte A. Luftdruck Regen Wind Richtung Taupunkt Windchill Windben
02.10.2017 00:00 9,5 C 80 % 1017,4 hPa 0,0 l/m 0,0 km/h O-SO 6,2 C 9,5 C 0,0 km/h
02.10.2017 01:00 10,1 C 78 % 1017,1 hPa 0,0 l/m 0,0 km/h O-SO 6,4 C 10,1 C 0,0 km/h
02.10.2017 02:00 10,4 C 82 % 1018,0 hPa 0,0 l/m 0,0 km/h O-SO 7,5 C 10,4 C 0,0 km/h
02.10.2017 03:00 10,6 C 81 % 1017,5 hPa 0,0 l/m 0,0 km/h SO 7,5 C 10,6 C 0,0 km/h
02.10.2017 04:00 10,3 C 81 % 1017,2 hPa 0,0 l/m 0,0 km/h O-SO 7,2 C 10,3 C 0,0 km/h
02.10.2017 05:00 9,5 C 80 % 1017,4 hPa 0,0 l/m 0,0 km/h O-SO 6,2 C 9,5 C 0,0 km/h
02.10.2017 06:00 10,1 C 78 % 1017,1 hPa 0,0 l/m 0,0 km/h SO 6,4 C 10,1 C 0,0 km/h
02.10.2017 07:00 11,0 C 77 % 1017,5 hPa 0,0 l/m 0,0 km/h S 7,1 C 11,0 C 0,0 km/h
02.10.2017 08:00 13,5 C 82 % 1017,4 hPa 0,0 l/m 3,9 km/h S-SO 10,5 C 13,5 C 2,2 km/h
02.10.2017 09:00 14,7 C 83 % 1017,5 hPa 0,0 l/m 0,0 km/h W-SW 11,8 C 14,7 C 0,0 km/h
02.10.2017 10:00 15,5 C 79 % 1017,7 hPa 0,0 l/m 0,0 km/h W-SW 11,9 C 15,5 C 0,0 km/h
02.10.2017 11:00 16,9 C 77 % 1017,3 hPa 0,0 l/m 0,0 km/h W-SW 12,8 C 16,9 C 0,0 km/h
02.10.2017 12:00 17,5 C 76 % 1017,0 hPa 0,0 l/m 0,0 km/h SW 13,2 C 17,5 C 0,0 km/h
02.10.2017 13:00 18,4 C 74 % 1016,6 hPa 0,0 l/m 1,3 km/h SW 13,7 C 18,4 C 0,7 km/h
02.10.2017 14:00 18,4 C 75 % 1016,6 hPa 0,0 l/m 24,6 km/h W-SW 13,9 C 13,3 C 13,7 km/h
02.10.2017 15:00 18,4 C 76 % 1016,0 hPa 0,0 l/m 13,0 km/h S-SW 14,1 C 15,9 C 7,2 km/h
02.10.2017 16:00 18,0 C 78 % 1016,3 hPa 0,0 l/m 11,0 km/h S-SW 14,1 C 16,1 C 6,1 km/h
02.10.2017 17:00 17,8 C 80 % 1015,9 hPa 0,0 l/m 21,4 km/h SW 14,3 C 13,1 C 11,9 km/h
02.10.2017 18:00 17,3 C 81 % 1016,1 hPa 0,0 l/m 7,8 km/h S-SW 14,0 C 16,6 C 4,3 km/h
02.10.2017 19:00 17,3 C 82 % 1016,2 hPa 0,0 l/m 0,0 km/h S 14,2 C 17,3 C 0,0 km/h
02.10.2017 20:00 17,3 C 82 % 1016,2 hPa 0,0 l/m 21,4 km/h SW 14,2 C 12,4 C 11,9 km/h
02.10.2017 21:00 16,9 C 82 % 1015,9 hPa 0,0 l/m 21,4 km/h S 13,8 C 11,9 C 11,9 km/h
02.10.2017 22:00 16,9 C 82 % 1015,9 hPa 0,0 l/m 4,5 km/h W-SW 13,8 C 16,9 C 2,5 km/h
02.10.2017 23:00 17,0 C 83 % 1015,6 hPa 0,0 l/m 18,8 km/h S 14,1 C 12,6 C 10,4 km/h
03.10.2017 00:00 17,2 C 82 % 1015,1 hPa 0,0 l/m 7,1 km/h S 14,1 C 16,9 C 4,0 km/h
03.10.2017 01:00 17,3 C 82 % 1014,5 hPa 0,0 l/m 7,8 km/h S 14,2 C 16,6 C 4,3 km/h
03.10.2017 02:00 17,4 C 82 % 1013,3 hPa 0,0 l/m 18,8 km/h S-SW 14,3 C 13,1 C 10,4 km/h
03.10.2017 03:00 17,9 C 82 % 1012,3 hPa 0,0 l/m 0,0 km/h W-SW 14,8 C 17,9 C 0,0 km/h
03.10.2017 04:00 18,1 C 81 % 1011,3 hPa 0,0 l/m 36,3 km/h S 14,8 C 11,3 C 20,2 km/h
03.10.2017 05:00 16,6 C 81 % 1010,9 hPa 1,0 l/m 0,6 km/h N 13,3 C 16,6 C 0,4 km/h
03.10.2017 06:00 13,2 C 82 % 1012,7 hPa 6,2 l/m 0,0 km/h N 10,2 C 13,2 C 0,0 km/h
03.10.2017 07:00 12,5 C 79 % 1014,2 hPa 7,3 l/m 8,4 km/h SO 9,0 C 11,2 C 4,7 km/h
03.10.2017 08:00 11,9 C 78 % 1015,8 hPa 4,7 l/m 0,0 km/h SO 8,2 C 11,9 C 0,0 km/h
03.10.2017 09:00 12,5 C 76 % 1016,8 hPa 0,5 l/m 0,0 km/h SW 8,4 C 12,5 C 0,0 km/h
03.10.2017 10:00 14,9 C 83 % 1017,9 hPa 0,0 l/m 0,0 km/h W-NW 12,0 C 14,9 C 0,0 km/h
03.10.2017 11:00 16,6 C 77 % 1018,9 hPa 0,0 l/m 0,0 km/h W-NW 12,5 C 16,6 C 0,0 km/h
03.10.2017 12:00 20,8 C 63 % 1019,2 hPa 0,0 l/m 0,0 km/h W-NW 13,5 C 20,8 C 0,0 km/h
03.10.2017 13:00 20,3 C 56 % 1019,7 hPa 0,0 l/m 0,0 km/h N 11,2 C 20,3 C 0,0 km/h
03.10.2017 14:00 22,1 C 44 % 1020,1 hPa 0,0 l/m 0,0 km/h NW 9,3 C 22,1 C 0,0 km/h
03.10.2017 15:00 23,5 C 41 % 1020,2 hPa 0,0 l/m 0,0 km/h W-NW 9,5 C 23,5 C 0,0 km/h
03.10.2017 16:00 24,8 C 38 % 1020,5 hPa 0,0 l/m 0,0 km/h NW 9,5 C 24,8 C 0,0 km/h
03.10.2017 17:00 24,6 C 39 % 1021,0 hPa 0,0 l/m 0,0 km/h N-NO 9,7 C 24,6 C 0,0 km/h
03.10.2017 18:00 14,5 C 62 % 1021,6 hPa 0,0 l/m 0,0 km/h O-SO 7,3 C 14,5 C 0,0 km/h
03.10.2017 19:00 10,2 C 75 % 1022,4 hPa 0,0 l/m 0,0 km/h O-SO 6,0 C 10,2 C 0,0 km/h
03.10.2017 20:00 8,6 C 80 % 1023,2 hPa 0,0 l/m 0,0 km/h O-SO 5,3 C 8,6 C 0,0 km/h
03.10.2017 21:00 7,9 C 83 % 1023,3 hPa 0,0 l/m 0,0 km/h O-SO 5,2 C 7,9 C 0,0 km/h
03.10.2017 22:00 7,3 C 84 % 1024,0 hPa 0,0 l/m 0,0 km/h O-SO 4,8 C 7,3 C 0,0 km/h
03.10.2017 23:00 6,9 C 83 % 1024,4 hPa 0,0 l/m 0,0 km/h O-NO 4,2 C 6,9 C 0,0 km/h
04.10.2017 00:00 6,4 C 83 % 1024,1 hPa 0,0 l/m 0,0 km/h O-NO 3,7 C 6,4 C 0,0 km/h
04.10.2017 01:00 6,3 C 83 % 1024,0 hPa 0,0 l/m 0,0 km/h O-SO 3,6 C 6,3 C 0,0 km/h
04.10.2017 02:00 5,6 C 83 % 1023,8 hPa 0,0 l/m 0,0 km/h O 2,9 C 5,6 C 0,0 km/h
04.10.2017 03:00 5,6 C 81 % 1024,0 hPa 0,0 l/m 8,4 km/h NO 2,6 C 3,9 C 4,7 km/h
04.10.2017 04:00 5,3 C 80 % 1023,6 hPa 0,0 l/m 0,0 km/h O-SO 2,1 C 5,3 C 0,0 km/h
04.10.2017 05:00 5,3 C 80 % 1023,5 hPa 0,0 l/m 0,0 km/h O-SO 2,1 C 5,3 C 0,0 km/h
04.10.2017 06:00 5,4 C 79 % 1023,3 hPa 0,0 l/m 1,3 km/h O-SO 2,1 C 5,4 C 0,7 km/h
04.10.2017 07:00 5,8 C 78 % 1023,5 hPa 0,0 l/m 0,0 km/h SO 2,3 C 5,8 C 0,0 km/h
04.10.2017 08:00 7,4 C 77 % 1023,5 hPa 0,0 l/m 0,0 km/h O-SO 3,6 C 7,4 C 0,0 km/h
04.10.2017 09:00 9,4 C 79 % 1024,1 hPa 0,0 l/m 0,0 km/h O 5,9 C 9,4 C 0,0 km/h
04.10.2017 10:00 11,3 C 83 % 1024,3 hPa 0,0 l/m 0,0 km/h W-SW 8,5 C 11,3 C 0,0 km/h
04.10.2017 11:00 12,6 C 80 % 1023,8 hPa 0,0 l/m 0,0 km/h N 9,2 C 12,6 C 0,0 km/h
04.10.2017 12:00 14,9 C 75 % 1023,4 hPa 0,0 l/m 0,0 km/h W 10,5 C 14,9 C 0,0 km/h
04.10.2017 13:00 17,2 C 65 % 1022,8 hPa 0,0 l/m 0,0 km/h W-SW 10,6 C 17,2 C 0,0 km/h
04.10.2017 14:00 18,8 C 60 % 1022,5 hPa 0,0 l/m 0,0 km/h W-SW 10,9 C 18,8 C 0,0 km/h
04.10.2017 15:00 19,1 C 53 % 1022,0 hPa 0,0 l/m 0,0 km/h W-SW 9,3 C 19,1 C 0,0 km/h
04.10.2017 16:00 19,8 C 52 % 1021,3 hPa 0,0 l/m 0,0 km/h W-SW 9,7 C 19,8 C 0,0 km/h
04.10.2017 17:00 17,6 C 55 % 1021,0 hPa 0,0 l/m 0,0 km/h W-SW 8,5 C 17,6 C 0,0 km/h
04.10.2017 18:00 15,1 C 61 % 1021,0 hPa 0,0 l/m 0,0 km/h NW 7,6 C 15,1 C 0,0 km/h
04.10.2017 19:00 10,0 C 77 % 1021,0 hPa 0,0 l/m 0,0 km/h N-NO 6,2 C 10,0 C 0,0 km/h
04.10.2017 20:00 8,4 C 81 % 1021,0 hPa 0,0 l/m 0,0 km/h O-SO 5,3 C 8,4 C 0,0 km/h
04.10.2017 21:00 8,1 C 83 % 1021,4 hPa 0,0 l/m 0,0 km/h O-SO 5,4 C 8,1 C 0,0 km/h
04.10.2017 22:00 7,3 C 84 % 1021,0 hPa 0,0 l/m 0,0 km/h O-SO 4,8 C 7,3 C 0,0 km/h
04.10.2017 23:00 6,5 C 84 % 1020,9 hPa 0,0 l/m 0,0 km/h O-SO 4,0 C 6,5 C 0,0 km/h
05.10.2017 00:00 6,3 C 83 % 1020,6 hPa 0,0 l/m 0,0 km/h O-SO 3,6 C 6,3 C 0,0 km/h
05.10.2017 01:00 5,9 C 83 % 1020,5 hPa 0,0 l/m 0,0 km/h O-SO 3,2 C 5,9 C 0,0 km/h
05.10.2017 02:00 5,7 C 81 % 1020,1 hPa 0,0 l/m 0,0 km/h O-SO 2,7 C 5,7 C 0,0 km/h
05.10.2017 03:00 5,4 C 81 % 1019,0 hPa 0,0 l/m 0,0 km/h O-SO 2,4 C 5,4 C 0,0 km/h
05.10.2017 04:00 5,0 C 80 % 1018,3 hPa 0,0 l/m 0,0 km/h SO 1,8 C 5,0 C 0,0 km/h
05.10.2017 05:00 5,1 C 80 % 1017,5 hPa 0,0 l/m 3,2 km/h N-NO 1,9 C 5,1 C 1,8 km/h
05.10.2017 06:00 5,3 C 78 % 1016,9 hPa 0,0 l/m 0,0 km/h W-SW 1,8 C 5,3 C 0,0 km/h
05.10.2017 07:00 9,5 C 75 % 1016,6 hPa 0,0 l/m 0,0 km/h SW 5,3 C 9,5 C 0,0 km/h
05.10.2017 08:00 13,8 C 81 % 1016,3 hPa 0,0 l/m 0,0 km/h SW 10,6 C 13,8 C 0,0 km/h
05.10.2017 09:00 16,6 C 65 % 1016,0 hPa 0,0 l/m 9,7 km/h S-SO 10,0 C 15,0 C 5,4 km/h
05.10.2017 10:00 16,1 C 62 % 1015,9 hPa 0,0 l/m 13,6 km/h SW 8,8 C 13,0 C 7,6 km/h
05.10.2017 11:00 20,4 C 50 % 1015,4 hPa 0,0 l/m 9,7 km/h SW 9,6 C 19,2 C 5,4 km/h
05.10.2017 12:00 21,3 C 46 % 1014,8 hPa 0,0 l/m 35,6 km/h W-SW 9,2 C 16,0 C 19,8 km/h
05.10.2017 13:00 21,3 C 42 % 1014,1 hPa 0,0 l/m 16,8 km/h SW 7,9 C 18,5 C 9,4 km/h
05.10.2017 14:00 24,4 C 35 % 1012,6 hPa 0,0 l/m 35,0 km/h SW 7,9 C 20,5 C 19,4 km/h
05.10.2017 15:00 20,9 C 37 % 1012,0 hPa 0,0 l/m 40,2 km/h W-SW 5,7 C 15,0 C 22,3 km/h
05.10.2017 16:00 19,4 C 44 % 1012,3 hPa 0,0 l/m 26,6 km/h W 6,8 C 14,3 C 14,8 km/h
05.10.2017 17:00 18,6 C 55 % 1012,5 hPa 0,0 l/m 0,0 km/h W 9,4 C 18,6 C 0,0 km/h
05.10.2017 18:00 17,3 C 61 % 1012,8 hPa 0,0 l/m 2,6 km/h N 9,7 C 17,3 C 1,4 km/h
05.10.2017 19:00 14,1 C 75 % 1014,3 hPa 1,0 l/m 0,0 km/h N 9,7 C 14,1 C 0,0 km/h
05.10.2017 20:00 13,1 C 81 % 1014,2 hPa 0,5 l/m 0,0 km/h N 9,9 C 13,1 C 0,0 km/h
05.10.2017 21:00 11,3 C 83 % 1015,5 hPa 2,1 l/m 2,6 km/h NO 8,5 C 11,3 C 1,4 km/h
05.10.2017 22:00 10,2 C 83 % 1015,9 hPa 0,5 l/m 0,0 km/h O-NO 7,4 C 10,2 C 0,0 km/h
05.10.2017 23:00 9,7 C 83 % 1016,2 hPa 1,0 l/m 0,0 km/h O-SO 7,0 C 9,7 C 0,0 km/h
06.10.2017 00:00 9,7 C 82 % 1016,2 hPa 0,0 l/m 0,0 km/h O-SO 6,8 C 9,7 C 0,0 km/h
06.10.2017 01:00 9,7 C 82 % 1016,4 hPa 0,0 l/m 0,0 km/h O-SO 6,8 C 9,7 C 0,0 km/h
06.10.2017 02:00 7,4 C 82 % 1017,0 hPa 0,0 l/m 0,0 km/h O-NO 4,5 C 7,4 C 0,0 km/h
06.10.2017 03:00 8,4 C 81 % 1016,7 hPa 0,0 l/m 0,0 km/h O-NO 5,3 C 8,4 C 0,0 km/h
06.10.2017 04:00 7,6 C 81 % 1016,5 hPa 0,0 l/m 0,0 km/h O-NO 4,6 C 7,6 C 0,0 km/h
06.10.2017 05:00 6,1 C 81 % 1016,9 hPa 0,0 l/m 0,0 km/h N 3,1 C 6,1 C 0,0 km/h
06.10.2017 06:00 4,3 C 81 % 1017,4 hPa 0,0 l/m 0,0 km/h N 1,3 C 4,3 C 0,0 km/h
06.10.2017 07:00 5,4 C 79 % 1017,7 hPa 0,0 l/m 0,0 km/h N 2,1 C 5,4 C 0,0 km/h
06.10.2017 08:00 7,2 C 77 % 1017,9 hPa 0,0 l/m 0,0 km/h S-SW 3,4 C 7,2 C 0,0 km/h
06.10.2017 09:00 8,5 C 73 % 1018,5 hPa 0,0 l/m 0,0 km/h S-SW 3,9 C 8,5 C 0,0 km/h
06.10.2017 10:00 9,1 C 72 % 1018,7 hPa 0,5 l/m 0,0 km/h N-NW 4,3 C 9,1 C 0,0 km/h
06.10.2017 11:00 10,5 C 75 % 1019,2 hPa 0,0 l/m 0,0 km/h W 6,3 C 10,5 C 0,0 km/h
06.10.2017 12:00 13,6 C 82 % 1019,2 hPa 0,0 l/m 15,6 km/h W-SW 10,6 C 9,3 C 8,6 km/h
06.10.2017 13:00 17,1 C 64 % 1018,6 hPa 0,0 l/m 1,9 km/h N 10,2 C 17,1 C 1,1 km/h
06.10.2017 14:00 12,4 C 72 % 1018,9 hPa 0,0 l/m 6,5 km/h O-SO 7,5 C 12,4 C 3,6 km/h
06.10.2017 15:00 17,8 C 61 % 1019,2 hPa 0,0 l/m 0,0 km/h W-NW 10,2 C 17,8 C 0,0 km/h
06.10.2017 16:00 13,3 C 68 % 1019,6 hPa 0,0 l/m 0,0 km/h W-NW 7,5 C 13,3 C 0,0 km/h
06.10.2017 17:00 14,9 C 61 % 1020,2 hPa 0,0 l/m 0,0 km/h W 7,4 C 14,9 C 0,0 km/h
06.10.2017 18:00 11,1 C 68 % 1020,7 hPa 0,0 l/m 0,0 km/h W 5,4 C 11,1 C 0,0 km/h
06.10.2017 19:00 9,5 C 78 % 1021,4 hPa 0,0 l/m 0,0 km/h SO 5,9 C 9,5 C 0,0 km/h
06.10.2017 20:00 9,1 C 81 % 1022,1 hPa 0,0 l/m 0,0 km/h SO 6,0 C 9,1 C 0,0 km/h
06.10.2017 21:00 9,0 C 83 % 1022,6 hPa 0,0 l/m 0,0 km/h O-SO 6,3 C 9,0 C 0,0 km/h
06.10.2017 22:00 8,6 C 84 % 1023,1 hPa 0,0 l/m 0,0 km/h O-SO 6,1 C 8,6 C 0,0 km/h
06.10.2017 23:00 8,1 C 83 % 1023,5 hPa 0,0 l/m 0,0 km/h O-SO 5,4 C 8,1 C 0,0 km/h
07.10.2017 00:00 7,9 C 83 % 1023,4 hPa 0,0 l/m 0,0 km/h O-SO 5,2 C 7,9 C 0,0 km/h
07.10.2017 01:00 8,1 C 83 % 1023,6 hPa 0,0 l/m 0,0 km/h O-NO 5,4 C 8,1 C 0,0 km/h
07.10.2017 02:00 7,8 C 83 % 1023,7 hPa 0,0 l/m 0,0 km/h O-NO 5,1 C 7,8 C 0,0 km/h
07.10.2017 03:00 7,9 C 83 % 1023,5 hPa 0,0 l/m 0,0 km/h O-NO 5,2 C 7,9 C 0,0 km/h
07.10.2017 04:00 7,8 C 82 % 1023,5 hPa 0,0 l/m 0,0 km/h O-NO 4,9 C 7,8 C 0,0 km/h
07.10.2017 05:00 7,5 C 81 % 1023,2 hPa 0,0 l/m 0,0 km/h O-NO 4,5 C 7,5 C 0,0 km/h
07.10.2017 06:00 7,4 C 81 % 1023,3 hPa 0,0 l/m 0,0 km/h O-NO 4,4 C 7,4 C 0,0 km/h
07.10.2017 07:00 7,0 C 81 % 1023,6 hPa 0,0 l/m 0,0 km/h O-NO 4,0 C 7,0 C 0,0 km/h
07.10.2017 08:00 7,4 C 79 % 1023,1 hPa 0,0 l/m 0,0 km/h O-NO 4,0 C 7,4 C 0,0 km/h
07.10.2017 09:00 12,8 C 82 % 1023,4 hPa 0,0 l/m 0,0 km/h S 9,8 C 12,8 C 0,0 km/h
07.10.2017 10:00 15,4 C 68 % 1023,3 hPa 0,0 l/m 0,0 km/h W 9,5 C 15,4 C 0,0 km/h
07.10.2017 11:00 17,6 C 63 % 1022,5 hPa 0,0 l/m 0,0 km/h W 10,5 C 17,6 C 0,0 km/h
07.10.2017 12:00 18,9 C 51 % 1021,9 hPa 0,0 l/m 24,0 km/h W 8,5 C 14,1 C 13,3 km/h
07.10.2017 13:00 16,4 C 56 % 1020,8 hPa 0,0 l/m 8,4 km/h W-NW 7,6 C 15,4 C 4,7 km/h
07.10.2017 14:00 16,5 C 55 % 1019,7 hPa 0,0 l/m 9,7 km/h SW 7,4 C 14,9 C 5,4 km/h
07.10.2017 15:00 20,1 C 47 % 1018,9 hPa 0,0 l/m 18,8 km/h SW 8,4 C 16,6 C 10,4 km/h
07.10.2017 16:00 16,2 C 48 % 1018,1 hPa 0,0 l/m 9,7 km/h W 5,2 C 14,6 C 5,4 km/h
07.10.2017 17:00 13,8 C 57 % 1017,9 hPa 0,0 l/m 4,5 km/h SW 5,4 C 13,8 C 2,5 km/h
07.10.2017 18:00 12,8 C 64 % 1017,5 hPa 0,0 l/m 0,0 km/h W 6,2 C 12,8 C 0,0 km/h
07.10.2017 19:00 12,2 C 68 % 1017,2 hPa 0,0 l/m 0,0 km/h S 6,5 C 12,2 C 0,0 km/h
07.10.2017 20:00 12,3 C 69 % 1016,7 hPa 0,0 l/m 0,0 km/h S-SW 6,8 C 12,3 C 0,0 km/h
07.10.2017 21:00 12,3 C 69 % 1016,1 hPa 0,0 l/m 14,3 km/h W 6,8 C 8,2 C 7,9 km/h
07.10.2017 22:00 12,3 C 69 % 1016,2 hPa 0,0 l/m 4,5 km/h SW 6,8 C 12,3 C 2,5 km/h
07.10.2017 23:00 11,3 C 73 % 1016,5 hPa 0,0 l/m 3,9 km/h S-SW 6,6 C 11,3 C 2,2 km/h
08.10.2017 00:00 9,4 C 83 % 1016,6 hPa 1,6 l/m 13,6 km/h S-SO 6,7 C 5,0 C 7,6 km/h
08.10.2017 01:00 8,5 C 84 % 1016,0 hPa 1,6 l/m 0,0 km/h S-SO 6,0 C 8,5 C 0,0 km/h
08.10.2017 02:00 9,3 C 83 % 1015,5 hPa 0,0 l/m 0,0 km/h W-SW 6,6 C 9,3 C 0,0 km/h
08.10.2017 03:00 10,4 C 82 % 1015,2 hPa 0,0 l/m 25,3 km/h SW 7,5 C 2,3 C 14,0 km/h
08.10.2017 04:00 10,4 C 80 % 1015,3 hPa 0,0 l/m 9,1 km/h SO 7,1 C 8,6 C 5,0 km/h
08.10.2017 05:00 10,3 C 81 % 1015,5 hPa 0,0 l/m 16,8 km/h SW 7,2 C 4,8 C 9,4 km/h
08.10.2017 06:00 9,2 C 84 % 1015,7 hPa 0,0 l/m 3,9 km/h S 6,6 C 9,2 C 2,2 km/h
08.10.2017 07:00 9,9 C 83 % 1016,1 hPa 0,0 l/m 0,0 km/h S 7,2 C 9,9 C 0,0 km/h
08.10.2017 08:00 9,4 C 82 % 1016,5 hPa 1,0 l/m 0,0 km/h S 6,5 C 9,4 C 0,0 km/h
08.10.2017 09:00 9,6 C 81 % 1016,9 hPa 1,0 l/m 0,0 km/h S 6,5 C 9,6 C 0,0 km/h
08.10.2017 10:00 10,5 C 82 % 1017,4 hPa 0,5 l/m 0,6 km/h W-SW 7,6 C 10,5 C 0,4 km/h
08.10.2017 11:00 11,3 C 83 % 1017,5 hPa 0,0 l/m 0,0 km/h SW 8,5 C 11,3 C 0,0 km/h
08.10.2017 12:00 11,6 C 83 % 1017,6 hPa 0,0 l/m 13,6 km/h W 8,8 C 7,6 C 7,6 km/h
08.10.2017 13:00 13,3 C 81 % 1017,6 hPa 0,0 l/m 4,5 km/h SW 10,1 C 13,3 C 2,5 km/h
08.10.2017 14:00 14,4 C 79 % 1017,2 hPa 0,0 l/m 5,2 km/h W 10,8 C 14,4 C 2,9 km/h
08.10.2017 15:00 15,1 C 75 % 1017,0 hPa 0,0 l/m 6,5 km/h W-SW 10,7 C 15,1 C 3,6 km/h
08.10.2017 16:00 13,6 C 78 % 1016,8 hPa 0,0 l/m 1,3 km/h S-SW 9,8 C 13,6 C 0,7 km/h
08.10.2017 17:00 13,3 C 80 % 1017,1 hPa 0,0 l/m 1,9 km/h S-SO 9,9 C 13,3 C 1,1 km/h
08.10.2017 18:00 12,6 C 81 % 1017,6 hPa 0,0 l/m 0,0 km/h S 9,4 C 12,6 C 0,0 km/h
08.10.2017 19:00 12,0 C 82 % 1018,2 hPa 0,0 l/m 0,0 km/h S 9,0 C 12,0 C 0,0 km/h
08.10.2017 20:00 11,2 C 83 % 1018,4 hPa 0,0 l/m 0,0 km/h S 8,4 C 11,2 C 0,0 km/h
08.10.2017 21:00 10,7 C 83 % 1018,2 hPa 0,0 l/m 0,0 km/h S-SO 7,9 C 10,7 C 0,0 km/h
08.10.2017 22:00 10,7 C 82 % 1018,5 hPa 0,0 l/m 0,0 km/h S-SO 7,8 C 10,7 C 0,0 km/h
08.10.2017 23:00 10,9 C 81 % 1018,4 hPa 0,0 l/m 0,0 km/h S-SO 7,8 C 10,9 C 0,0 km/h
Min-Datum _ 06.10.17 05.10.17 03.10.17 - 02.10.17 - 06.10.17 08.10.17 02.10.17
_ Min-Zeit 06:53 14:53 05:53 - 00:53 - 06:53 03:53 00:53
Minimum _ 4,3 C 35 % 1010,9 hPa - 0,0 km/h - 1,3 C 2,3 C 0,0 km/h
Max-Datum _ 03.10.17 03.10.17 03.10.17 03.10.17 05.10.17 - 03.10.17 03.10.17 05.10.17
_ Max-Zeit 16:53 22:53 23:53 07:53 15:53 - 04:53 16:53 15:53
Maximum _ 24,8 C 84 % 1024,4 hPa 7,3 l/m 40,2 km/h
W-SW
- 14,8 C 24,8 C 22,3 km/h
W-SW
Durchschnitt _ 12,5 C 74 % 1018,6 hPa #31,1 l/m 3,9 km/h O-SO 7,8 C 11,8 C 2,2 km/h
www.sexauwetter.de